Terminal Aerodrome Forecast
Issued by NWS

Home | Current Version | Previous Version | Text Only | Print | Product List | Glossary On
Versions: 1 2 3 4 5 6 7 8 9 10 11 12 13 14 15 16 17 18
417
FTUS45 KTFX 281126
TAFLWT
TAF
KLWT 281126Z 2812/2912 35008KT P6SM -SHRA BKN080
     FM282000 33015G25KT P6SM BKN080
     FM290200 34008KT P6SM SKC
     FM290400 VRB05KT P6SM SKC=

USA.gov is the U.S. government's official web portal to all federal, state and local government web resources and services.